Terminal Aerodrome Forecast
Issued by NWS

Home | Current Version | Previous Version | Text Only | Print | Product List | Glossary On
Versions: 1 2 3 4 5 6 7 8 9 10 11 12 13 14 15 16 17 18 19 20 21 22 23 24 25 26 27 28 29 30 31 32
000
FTUS41 KBOX 010527
TAFBED
TAF
KBED 010527Z 0106/0206 20005KT P6SM FEW007 BKN150
     FM010800 24005KT 4SM BR BKN110
     FM011200 25004KT P6SM BKN090
     FM012200 21004KT P6SM SCT045
     FM020200 21004KT P6SM BKN045=

USA.gov is the U.S. government's official web portal to all federal, state and local government web resources and services.